Time;durP1;ratioP1;P1;durP2;ratioP2;P2;SDS_P1;SDS_P2;PMS_P1;PMS_P2;Temp;Humidity;BMP_temperature;BMP_pressure;BME280_temperature;BME280_humidity;BME280_pressure;Samples;Min_cycle;Max_cycle;Signal;HPM_P1;HPM_P2
2022/06/22 00:01:53;;;;;;;7.88;7.18;;;;;;;20.75;98.46;64149.59;4967658;28;20273;-73
2022/06/22 00:04:23;;;;;;;15.27;7.95;;;;;;;20.61;99.69;64135.53;4965635;29;20188;-75
2022/06/22 00:06:55;;;;;;;8.00;7.35;;;;;;;20.53;100.00;64127.19;4965337;29;20208;-75
2022/06/22 00:09:27;;;;;;;13.48;9.18;;;;;;;20.59;100.00;64130.31;4967898;28;20248;-75
2022/06/22 00:11:57;;;;;;;8.43;7.43;;;;;;;20.58;99.38;64132.41;4963766;28;20267;-74
2022/06/22 00:14:28;;;;;;;8.30;7.63;;;;;;;20.55;99.85;64129.25;4966154;29;20594;-75
2022/06/22 00:16:57;;;;;;;13.23;7.68;;;;;;;20.51;100.00;64121.97;4965690;28;20238;-75
2022/06/22 00:19:30;;;;;;;10.13;8.45;;;;;;;20.51;100.00;64122.50;4948471;28;20236;-74
2022/06/22 00:21:58;;;;;;;9.55;8.05;;;;;;;20.53;100.00;64127.19;4963214;28;20199;-76
2022/06/22 00:24:42;;;;;;;9.25;8.13;;;;;;;20.56;100.00;64124.59;4966241;28;20477;-76
2022/06/22 00:27:22;;;;;;;9.13;7.95;;;;;;;20.57;100.00;64128.75;4960977;28;20193;-76
2022/06/22 00:30:11;;;;;;;10.45;8.07;;;;;;;20.53;100.00;64126.66;4966490;28;20240;-76
2022/06/22 00:32:39;;;;;;;8.50;7.72;;;;;;;20.47;100.00;64120.38;4962550;28;20243;-75
2022/06/22 00:35:39;;;;;;;12.68;8.20;;;;;;;20.50;100.00;64121.44;4964843;28;20291;-75
2022/06/22 00:38:09;;;;;;;10.40;8.23;;;;;;;20.48;100.00;64113.66;4966002;28;20259;-75
2022/06/22 00:40:37;;;;;;;10.98;8.50;;;;;;;20.49;100.00;64125.59;4967752;28;20224;-75
2022/06/22 00:43:06;;;;;;;11.60;8.95;;;;;;;20.41;100.00;64109.47;4965005;28;20212;-75
2022/06/22 00:45:35;;;;;;;9.70;8.70;;;;;;;20.52;100.00;64123.00;4958439;28;20229;-75
2022/06/22 00:48:08;;;;;;;11.30;7.78;;;;;;;20.54;100.00;64125.09;4947866;28;20201;-75
2022/06/22 00:50:40;;;;;;;10.88;8.70;;;;;;;20.49;100.00;64125.06;4960250;28;20220;-75
2022/06/22 00:53:18;;;;;;;9.35;8.35;;;;;;;20.58;100.00;64131.88;4963792;28;20391;-76
2022/06/22 00:55:53;;;;;;;11.40;9.48;;;;;;;20.52;100.00;64123.53;4944720;28;20221;-74
2022/06/22 00:58:30;;;;;;;10.20;8.48;;;;;;;20.40;100.00;64111.00;4950108;28;20203;-75
2022/06/22 01:01:03;;;;;;;12.27;9.93;;;;;;;20.37;100.00;64107.34;4963649;29;20208;-75
2022/06/22 01:03:39;;;;;;;10.65;8.98;;;;;;;20.49;100.00;64122.47;4948264;28;20541;-75
2022/06/22 01:06:13;;;;;;;11.30;9.23;;;;;;;20.49;100.00;64123.00;4946280;29;20315;-75
2022/06/22 01:08:46;;;;;;;11.38;8.48;;;;;;;20.46;100.00;64116.75;4959602;28;20235;-76
2022/06/22 01:14:07;;;;;;;9.77;8.68;;;;;;;20.60;100.00;64134.47;4947321;28;20205;-75
2022/06/22 01:16:40;;;;;;;14.82;10.05;;;;;;;20.65;100.00;64137.13;4947653;28;20212;-75
2022/06/22 01:19:39;;;;;;;15.25;9.55;;;;;;;20.73;100.00;64141.81;4968722;28;20204;-75
2022/06/22 01:22:21;;;;;;;9.75;8.35;;;;;;;20.74;100.00;64148.03;4963823;28;20208;-75
2022/06/22 01:24:58;;;;;;;10.82;9.70;;;;;;;20.71;100.00;64144.91;4962252;28;20595;-76
2022/06/22 01:27:33;;;;;;;13.10;8.93;;;;;;;20.73;100.00;64147.53;4961940;28;20214;-75
2022/06/22 01:30:03;;;;;;;9.75;8.85;;;;;;;20.86;100.00;64155.94;4943747;28;20231;-74
2022/06/22 01:32:33;;;;;;;10.85;9.88;;;;;;;20.88;100.00;64155.41;4943884;28;20212;-75
2022/06/22 01:35:04;;;;;;;11.77;9.55;;;;;;;21.04;99.73;64179.38;4951693;28;20230;-75
2022/06/22 01:37:33;;;;;;;11.23;9.52;;;;;;;21.04;99.65;64179.91;4959049;28;20197;-75
2022/06/22 01:40:11;;;;;;;10.20;8.98;;;;;;;21.05;99.08;64180.44;5054360;28;20429;-75
2022/06/22 01:42:46;;;;;;;10.35;8.82;;;;;;;21.00;99.71;64175.22;5066192;28;20208;-74
2022/06/22 01:45:21;;;;;;;12.48;9.27;;;;;;;20.99;99.48;64174.69;4960201;28;20224;-75
2022/06/22 01:47:53;;;;;;;10.75;9.20;;;;;;;20.94;100.00;64163.75;5014016;28;20200;-74
2022/06/22 01:50:27;;;;;;;9.60;8.65;;;;;;;20.97;100.00;64177.25;5063680;28;20228;-75
2022/06/22 01:53:02;;;;;;;10.25;9.13;;;;;;;20.93;100.00;64167.88;5021909;28;20212;-75
2022/06/22 01:55:38;;;;;;;11.10;9.45;;;;;;;20.92;100.00;64164.25;4961034;28;20220;-75
2022/06/22 01:58:29;;;;;;;12.52;9.68;;;;;;;20.86;100.00;64158.50;4943466;28;20204;-75
2022/06/22 02:01:00;;;;;;;10.43;9.43;;;;;;;20.61;100.00;64132.94;4953047;29;20227;-76
2022/06/22 02:03:33;;;;;;;10.55;9.55;;;;;;;20.64;100.00;64135.53;4960145;28;20208;-75
2022/06/22 02:07:44;;;;;;;11.80;9.45;;;;;;;20.61;100.00;64135.53;4950305;28;20225;-74
2022/06/22 02:08:57;;;;;;;10.88;9.20;;;;;;;20.54;100.00;64130.28;4943724;29;20228;-75
2022/06/22 02:11:29;;;;;;;12.25;9.82;;;;;;;20.53;100.00;64127.19;4948942;28;20556;-77
2022/06/22 02:14:03;;;;;;;13.32;10.05;;;;;;;20.48;100.00;64121.94;4956861;28;20505;-75
2022/06/22 02:16:36;;;;;;;11.68;8.90;;;;;;;20.44;100.00;64119.84;4945593;28;20209;-77
2022/06/22 02:19:14;;;;;;;14.90;9.27;;;;;;;20.45;100.00;64118.81;4945988;28;20252;-76
2022/06/22 02:21:44;;;;;;;14.38;9.93;;;;;;;20.41;100.00;64116.72;4960590;28;20235;-76
2022/06/22 02:24:15;;;;;;;14.00;9.50;;;;;;;20.44;100.00;64117.78;4963399;28;20259;-76
2022/06/22 02:26:46;;;;;;;12.90;9.85;;;;;;;20.41;100.00;64114.66;4956164;28;20545;-75
2022/06/22 02:29:18;;;;;;;11.80;9.73;;;;;;;20.41;100.00;64111.53;4950371;28;20396;-75
2022/06/22 02:31:46;;;;;;;17.05;10.23;;;;;;;20.24;100.00;64096.88;4962496;29;20208;-76
2022/06/22 02:34:17;;;;;;;12.13;9.90;;;;;;;20.22;100.00;64094.28;4948596;29;20260;-77
2022/06/22 02:36:47;;;;;;;12.82;10.52;;;;;;;20.21;100.00;64093.75;4946140;29;20273;-77
2022/06/22 02:39:15;;;;;;;12.32;9.27;;;;;;;20.17;100.00;64087.00;4952422;28;20240;-76
2022/06/22 02:44:33;;;;;;;13.07;10.18;;;;;;;20.11;100.00;64078.13;4960405;29;20231;-77
2022/06/22 02:47:18;;;;;;;12.88;10.40;;;;;;;20.07;100.00;64079.13;4964399;28;20211;-78
2022/06/22 02:49:49;;;;;;;11.27;10.13;;;;;;;20.11;100.00;64085.91;4946573;28;20335;-76
2022/06/22 02:52:18;;;;;;;10.95;9.80;;;;;;;20.16;100.00;64085.44;4961612;29;20196;-76
2022/06/22 02:54:50;;;;;;;12.82;11.00;;;;;;;20.23;100.00;64095.84;4965041;28;20250;-76
2022/06/22 02:57:27;;;;;;;11.13;9.93;;;;;;;20.23;100.00;64090.16;4963440;28;20204;-77
2022/06/22 02:59:58;;;;;;;11.45;9.52;;;;;;;20.19;100.00;64086.50;4962454;28;20222;-78
2022/06/22 03:02:27;;;;;;;12.35;10.95;;;;;;;20.20;100.00;64090.16;4965209;28;20200;-75
2022/06/22 03:04:55;;;;;;;14.32;9.68;;;;;;;20.25;100.00;64094.84;4959985;28;20284;-75
2022/06/22 03:07:23;;;;;;;13.27;10.48;;;;;;;20.28;100.00;64097.97;4959644;28;20267;-75
2022/06/22 03:09:52;;;;;;;11.05;9.63;;;;;;;20.31;100.00;64103.69;4949943;28;20232;-76
2022/06/22 03:12:20;;;;;;;12.40;11.00;;;;;;;20.40;100.00;64115.66;4981019;28;20215;-76
2022/06/22 03:14:53;;;;;;;10.65;9.70;;;;;;;20.39;100.00;64107.38;4974602;28;20296;-77
2022/06/22 03:17:29;;;;;;;11.68;9.65;;;;;;;20.45;100.00;64121.41;4968700;29;20271;-77
2022/06/22 03:20:01;;;;;;;11.57;10.40;;;;;;;20.47;100.00;64123.50;4952371;29;20228;-77
2022/06/22 03:22:32;;;;;;;118.78;80.13;;;;;;;20.57;100.00;64131.34;4950255;28;20205;-77
2022/06/22 03:25:06;;;;;;;29.73;20.33;;;;;;;20.67;100.00;64139.19;4950074;28;20236;-77
2022/06/22 03:27:39;;;;;;;13.85;10.65;;;;;;;20.78;100.00;64147.56;4953263;29;20208;-76
2022/06/22 03:30:13;;;;;;;11.68;10.63;;;;;;;20.87;100.00;64156.44;4949278;29;20243;-77
2022/06/22 03:32:47;;;;;;;10.52;9.50;;;;;;;21.01;100.00;64178.84;4950737;28;20231;-77
2022/06/22 03:35:19;;;;;;;16.02;10.13;;;;;;;21.02;100.00;64177.81;4968177;29;20216;-77
2022/06/22 03:37:50;;;;;;;12.13;9.95;;;;;;;20.97;100.00;64169.47;4964820;28;20202;-76
2022/06/22 03:40:24;;;;;;;10.93;9.82;;;;;;;21.04;100.00;64177.31;4967962;28;20242;-76
2022/06/22 03:42:55;;;;;;;12.48;11.18;;;;;;;21.20;100.00;64196.09;4965534;28;20249;-75
2022/06/22 03:45:29;;;;;;;14.82;10.85;;;;;;;21.30;100.00;64206.53;4962941;28;20224;-77
2022/06/22 03:48:02;;;;;;;12.25;10.90;;;;;;;21.37;100.00;64214.38;4947378;28;20260;-76
2022/06/22 03:50:40;;;;;;;12.93;10.88;;;;;;;21.48;100.00;64225.88;4947937;28;20254;-76
2022/06/22 03:53:13;;;;;;;12.70;10.88;;;;;;;21.42;100.00;64211.81;4980341;28;20208;-76
2022/06/22 03:55:45;;;;;;;11.38;10.27;;;;;;;21.47;100.00;64224.81;4966435;28;20232;-76
2022/06/22 03:58:12;;;;;;;11.20;10.05;;;;;;;21.48;100.00;64223.28;4964704;28;20204;-76
2022/06/22 04:00:42;;;;;;;13.55;11.55;;;;;;;21.43;100.00;64217.53;4969374;28;20220;-76
2022/06/22 04:03:12;;;;;;;14.30;12.02;;;;;;;21.47;100.00;64221.69;4965424;28;20227;-75
2022/06/22 04:05:44;;;;;;;12.52;10.95;;;;;;;21.53;100.00;64227.97;4949537;28;20251;-75
2022/06/22 04:08:20;;;;;;;17.25;10.82;;;;;;;21.54;100.00;64229.53;4947208;28;20236;-76
2022/06/22 04:10:51;;;;;;;11.55;10.32;;;;;;;21.51;100.00;64223.81;4956888;28;20240;-76
2022/06/22 04:13:23;;;;;;;13.63;10.52;;;;;;;21.50;100.00;64224.84;4960354;28;20295;-76
2022/06/22 04:15:55;;;;;;;14.52;11.30;;;;;;;21.61;100.00;64236.31;4945510;28;20225;-76
2022/06/22 04:18:28;;;;;;;13.73;10.60;;;;;;;21.63;100.00;64238.41;4946102;28;20201;-75
2022/06/22 04:21:01;;;;;;;13.70;10.30;;;;;;;21.82;100.00;64260.34;4958468;28;20224;-76
2022/06/22 04:23:34;;;;;;;14.90;11.00;;;;;;;21.92;100.00;64271.34;4947826;28;20225;-76
2022/06/22 04:26:05;;;;;;;12.73;11.15;;;;;;;22.09;100.00;64288.59;4945150;28;20231;-75
2022/06/22 04:28:35;;;;;;;18.08;11.18;;;;;;;22.25;100.00;64305.28;4962364;28;20204;-76
2022/06/22 04:31:06;;;;;;;12.77;10.93;;;;;;;22.42;97.38;64323.59;4958338;28;20237;-76
2022/06/22 04:33:41;;;;;;;14.30;11.05;;;;;;;22.51;94.27;64335.06;4958494;28;20212;-75
2022/06/22 04:36:11;;;;;;;15.75;11.15;;;;;;;22.64;93.72;64348.69;4963096;28;20559;-76
2022/06/22 04:38:42;;;;;;;14.25;10.75;;;;;;;22.79;91.08;64364.91;4969838;28;20200;-75
2022/06/22 04:41:23;;;;;;;11.35;9.68;;;;;;;22.84;90.50;64367.00;4951029;28;20276;-76
2022/06/22 04:43:51;;;;;;;14.07;10.18;;;;;;;22.97;90.05;64378.00;4965306;28;20193;-76
2022/06/22 04:46:22;;;;;;;14.13;10.73;;;;;;;23.14;90.16;64400.47;4964185;28;20265;-76
2022/06/22 04:48:53;;;;;;;14.57;10.93;;;;;;;23.13;90.57;64389.53;4962115;28;20268;-75
2022/06/22 04:51:24;;;;;;;13.32;10.48;;;;;;;22.87;92.90;64365.47;4966035;28;20274;-75
2022/06/22 04:53:56;;;;;;;13.27;10.75;;;;;;;22.98;92.40;64378.53;4967917;29;20263;-76
2022/06/22 04:56:30;;;;;;;17.05;11.07;;;;;;;23.17;88.98;64404.13;4981001;28;20236;-75
2022/06/22 04:58:59;;;;;;;12.68;10.43;;;;;;;23.15;88.87;64396.31;4965283;29;20211;-75
2022/06/22 05:01:29;;;;;;;14.73;11.20;;;;;;;23.30;89.46;64412.00;4965719;28;20537;-75
2022/06/22 05:04:00;;;;;;;10.85;9.82;;;;;;;23.52;88.29;64437.63;4983065;28;20378;-76
2022/06/22 05:06:31;;;;;;;15.38;10.30;;;;;;;23.77;85.24;64464.31;4972541;28;20230;-75
2022/06/22 05:09:04;;;;;;;11.80;9.65;;;;;;;23.96;83.13;64483.69;4954388;28;20211;-76
2022/06/22 05:11:38;;;;;;;14.38;10.52;;;;;;;23.81;83.13;64468.50;4975181;28;20361;-77
2022/06/22 05:14:15;;;;;;;13.80;9.98;;;;;;;23.45;85.99;64428.22;4960933;28;20208;-76
2022/06/22 05:16:47;;;;;;;11.15;9.57;;;;;;;23.56;86.61;64436.63;4964764;28;20196;-76
2022/06/22 05:19:16;;;;;;;13.05;9.60;;;;;;;23.17;87.71;64401.53;4963387;28;20273;-77
2022/06/22 05:21:45;;;;;;;13.93;11.15;;;;;;;22.92;91.42;64375.91;4961282;28;20721;-76
2022/06/22 05:24:32;;;;;;;13.70;10.65;;;;;;;23.15;90.51;64394.22;4964212;28;20250;-75
2022/06/22 05:27:01;;;;;;;14.02;9.90;;;;;;;23.15;92.33;64391.09;4964882;28;20199;-76
2022/06/22 05:29:36;;;;;;;12.82;11.10;;;;;;;23.12;92.06;64396.31;4963571;28;20228;-74
2022/06/22 05:32:08;;;;;;;11.38;10.25;;;;;;;23.24;90.19;64406.25;4961021;28;20223;-75
2022/06/22 05:34:41;;;;;;;16.30;10.10;;;;;;;23.44;89.63;64431.84;4975145;28;20235;-76
2022/06/22 05:37:12;;;;;;;11.75;10.32;;;;;;;23.32;89.62;64419.31;4962615;28;20271;-77
2022/06/22 05:39:41;;;;;;;10.68;9.38;;;;;;;23.43;89.25;64425.63;4961834;28;20302;-76
2022/06/22 05:42:11;;;;;;;11.65;9.90;;;;;;;23.36;90.72;64418.28;5007078;28;20209;-76
2022/06/22 05:44:39;;;;;;;20.98;10.55;;;;;;;23.46;89.92;64428.75;4962801;28;20234;-76
2022/06/22 05:47:06;;;;;;;12.13;10.07;;;;;;;23.42;89.72;64430.28;4963489;28;20274;-75
2022/06/22 05:49:43;;;;;;;14.85;11.05;;;;;;;23.62;89.49;64448.09;4973339;28;20227;-76
2022/06/22 05:52:17;;;;;;;13.63;10.65;;;;;;;23.93;87.75;64480.53;5008557;28;20259;-76
2022/06/22 05:54:50;;;;;;;16.38;10.23;;;;;;;23.93;89.14;64480.53;4984855;28;20230;-77
2022/06/22 05:57:24;;;;;;;11.05;9.98;;;;;;;23.91;88.22;64478.44;5044593;28;20201;-76
2022/06/22 05:59:57;;;;;;;19.88;11.40;;;;;;;24.08;87.51;64493.66;4960247;29;20224;-76
2022/06/22 06:02:32;;;;;;;13.25;10.70;;;;;;;24.21;86.26;64509.88;4968818;29;20251;-77
2022/06/22 06:05:07;;;;;;;13.80;9.65;;;;;;;24.05;84.66;64490.53;4990785;28;20222;-75
2022/06/22 06:07:37;;;;;;;13.52;10.40;;;;;;;24.03;85.98;64491.03;4988332;28;20199;-76
2022/06/22 06:10:15;;;;;;;17.42;11.15;;;;;;;24.17;83.81;64505.16;4952308;29;20567;-77
2022/06/22 06:12:47;;;;;;;11.25;10.15;;;;;;;24.24;82.90;64507.28;4946240;29;20220;-78
2022/06/22 06:15:22;;;;;;;14.32;11.38;;;;;;;24.13;84.32;64498.34;4948135;29;20220;-79
2022/06/22 06:17:52;;;;;;;16.65;10.35;;;;;;;24.11;83.13;64496.28;5017358;28;20196;-78
2022/06/22 06:20:25;;;;;;;12.73;10.10;;;;;;;23.92;84.61;64477.41;4966455;28;20239;-78
2022/06/22 06:22:56;;;;;;;18.70;10.85;;;;;;;23.64;86.16;64450.19;5048458;28;20246;-76
2022/06/22 06:28:17;;;;;;;17.83;11.05;;;;;;;23.69;87.58;64455.94;5025768;28;20263;-77
2022/06/22 06:30:47;;;;;;;14.40;10.85;;;;;;;23.70;87.70;64461.66;4975031;28;20291;-77
2022/06/22 06:33:21;;;;;;;14.13;11.13;;;;;;;23.85;85.90;64472.16;4966826;28;20212;-77
2022/06/22 06:35:55;;;;;;;13.43;10.73;;;;;;;24.02;85.12;64487.38;4959089;28;20224;-75
2022/06/22 06:38:28;;;;;;;12.73;10.27;;;;;;;24.11;85.55;64499.38;5020275;28;20200;-78
2022/06/22 06:41:05;;;;;;;13.50;11.80;;;;;;;24.08;88.53;64490.53;4969650;28;20287;-77
2022/06/22 06:43:40;;;;;;;18.25;11.57;;;;;;;24.38;85.71;64527.13;4958438;28;20204;-77
2022/06/22 06:46:15;;;;;;;11.70;10.60;;;;;;;24.42;86.20;64526.63;4959621;28;20215;-76
2022/06/22 06:48:46;;;;;;;12.07;10.75;;;;;;;24.56;88.19;64545.97;4969018;28;20245;-77
2022/06/22 06:51:19;;;;;;;18.35;11.80;;;;;;;24.86;86.21;64582.63;4963736;28;20236;-76
2022/06/22 06:53:52;;;;;;;11.82;10.48;;;;;;;25.03;85.17;64590.53;4973377;28;20259;-76
2022/06/22 06:56:23;;;;;;;14.52;11.00;;;;;;;25.18;82.58;64608.31;4970128;28;20232;-77
2022/06/22 06:58:53;;;;;;;17.65;11.80;;;;;;;25.19;78.93;64614.06;4998683;28;20197;-77
2022/06/22 07:01:22;;;;;;;18.15;14.23;;;;;;;25.28;77.42;64620.91;5009856;28;20224;-76
2022/06/22 07:03:52;;;;;;;17.00;12.88;;;;;;;25.37;75.54;64630.88;4968053;28;20201;-76
2022/06/22 07:06:21;;;;;;;16.90;11.15;;;;;;;25.42;74.26;64633.50;4965883;28;20284;-75
2022/06/22 07:08:53;;;;;;;17.10;11.73;;;;;;;25.24;75.32;64614.63;4986139;28;20511;-77
2022/06/22 07:11:31;;;;;;;19.27;12.18;;;;;;;25.19;77.75;64612.00;4966216;28;20231;-77
2022/06/22 07:14:04;;;;;;;17.58;12.60;;;;;;;25.63;71.63;64657.56;4970105;28;20387;-77
2022/06/22 07:16:33;;;;;;;17.70;12.05;;;;;;;25.79;73.13;64676.97;4974205;28;20214;-77
2022/06/22 07:19:04;;;;;;;14.18;11.80;;;;;;;25.96;67.29;64692.16;4969664;28;20203;-76
2022/06/22 07:21:41;;;;;;;13.13;11.75;;;;;;;26.08;64.43;64699.53;4967400;28;20216;-75
2022/06/22 07:24:14;;;;;;;11.93;10.55;;;;;;;26.31;67.55;64720.53;4983714;28;20207;-76
2022/06/22 07:26:55;;;;;;;15.70;12.60;;;;;;;26.53;66.63;64751.41;4968557;28;20386;-76
2022/06/22 07:29:32;;;;;;;13.70;11.90;;;;;;;26.36;64.16;64736.22;4980980;28;20208;-76
2022/06/22 07:32:06;;;;;;;18.98;12.95;;;;;;;26.42;64.42;64740.41;4987457;28;20267;-77
2022/06/22 07:34:40;;;;;;;13.68;11.13;;;;;;;26.34;64.86;64732.03;4971295;28;20220;-77
2022/06/22 07:37:16;;;;;;;21.85;12.38;;;;;;;26.49;62.83;64745.13;4971488;28;20199;-75
2022/06/22 07:39:48;;;;;;;16.63;12.77;;;;;;;26.46;63.25;64744.09;4963489;28;20220;-76
2022/06/22 07:42:15;;;;;;;16.35;11.45;;;;;;;26.23;64.48;64715.78;4970893;28;22798;-77
2022/06/22 07:44:43;;;;;;;15.40;13.68;;;;;;;26.15;66.04;64712.63;4975590;28;20224;-75
2022/06/22 07:47:19;;;;;;;17.60;14.00;;;;;;;26.29;63.80;64721.03;4971497;28;20373;-77
2022/06/22 07:49:52;;;;;;;18.70;14.02;;;;;;;26.46;64.11;64738.84;4961613;28;20227;-76
2022/06/22 07:52:25;;;;;;;17.13;12.68;;;;;;;26.42;64.08;64743.03;4985978;28;20232;-77
2022/06/22 07:54:59;;;;;;;16.80;13.10;;;;;;;26.27;64.81;64722.06;4956604;28;20257;-77
2022/06/22 07:57:35;;;;;;;18.00;12.65;;;;;;;25.97;65.53;64690.63;4963245;28;20236;-77
2022/06/22 08:00:08;;;;;;;14.32;11.93;;;;;;;26.15;64.61;64709.50;4969799;28;20228;-77
2022/06/22 08:02:45;;;;;;;17.35;13.85;;;;;;;26.23;66.55;64719.97;4972781;28;20394;-77
2022/06/22 08:05:15;;;;;;;15.75;12.13;;;;;;;26.14;64.73;64711.56;4984238;28;20217;-77
2022/06/22 08:07:51;;;;;;;18.25;12.23;;;;;;;26.11;64.23;64708.44;4972717;28;20386;-76
2022/06/22 08:10:21;;;;;;;15.00;12.00;;;;;;;26.37;64.60;64734.66;5009000;28;20459;-76
2022/06/22 08:12:56;;;;;;;16.67;10.98;;;;;;;26.64;61.91;64763.50;4972626;28;20203;-76
2022/06/22 08:15:24;;;;;;;22.70;12.50;;;;;;;26.68;64.34;64764.56;4970867;28;20238;-76
2022/06/22 08:17:53;;;;;;;20.77;11.70;;;;;;;26.98;62.56;64798.66;4973510;28;20193;-77
2022/06/22 08:20:25;;;;;;;16.60;13.70;;;;;;;26.90;63.75;64792.88;4973917;28;20223;-75
2022/06/22 08:22:55;;;;;;;16.85;12.07;;;;;;;26.92;61.75;64792.34;4986546;28;20266;-76
2022/06/22 08:25:23;;;;;;;15.35;11.30;;;;;;;26.47;64.23;64743.06;4986473;28;20217;-75
2022/06/22 08:27:50;;;;;;;23.00;11.93;;;;;;;26.45;62.76;64738.34;5000503;28;20201;-76
2022/06/22 08:30:19;;;;;;;17.52;11.40;;;;;;;26.72;61.73;64774.50;4966805;28;20220;-75
2022/06/22 08:32:55;;;;;;;19.25;12.30;;;;;;;26.61;61.47;64757.72;4998995;28;20235;-76
2022/06/22 08:35:26;;;;;;;11.35;9.57;;;;;;;26.16;61.11;64710.56;4966861;28;20238;-77
2022/06/22 08:38:02;;;;;;;15.32;10.68;;;;;;;26.05;63.33;64702.16;4962305;28;20204;-75
2022/06/22 08:40:40;;;;;;;17.13;11.43;;;;;;;25.78;65.63;64673.31;5007826;28;20220;-76
2022/06/22 08:43:17;;;;;;;16.92;10.90;;;;;;;25.84;63.79;64674.91;4979177;28;20219;-76
2022/06/22 08:46:16;;;;;;;13.85;10.20;;;;;;;26.03;64.20;64705.28;4971531;28;20230;-77
2022/06/22 08:49:25;;;;;;;18.45;10.57;;;;;;;26.05;63.64;64701.63;4969060;28;20204;-78
2022/06/22 08:52:19;;;;;;;16.77;11.18;;;;;;;26.10;66.12;64707.41;4969826;28;20239;-76
2022/06/22 08:55:05;;;;;;;20.55;11.57;;;;;;;26.52;64.58;64745.69;4996908;28;20232;-76
2022/06/22 08:57:48;;;;;;;15.35;11.63;;;;;;;26.89;62.74;64787.13;4984701;28;20429;-75
2022/06/22 09:00:21;;;;;;;14.65;10.45;;;;;;;26.90;59.62;64793.41;4962259;28;20411;-76
2022/06/22 09:03:16;;;;;;;11.65;10.30;;;;;;;26.95;61.53;64793.41;4983998;28;20204;-78
2022/06/22 09:06:12;;;;;;;11.63;9.20;;;;;;;26.80;60.89;64777.16;4995837;28;20540;-76
2022/06/22 09:09:12;;;;;;;14.50;10.40;;;;;;;26.79;59.38;64774.00;4967100;28;20225;-75
2022/06/22 09:11:49;;;;;;;12.98;9.85;;;;;;;26.84;59.91;64783.94;4969488;28;20453;-75
2022/06/22 09:14:39;;;;;;;12.13;10.32;;;;;;;26.95;61.10;64795.50;5020054;28;20199;-77
2022/06/22 09:17:44;;;;;;;14.85;9.65;;;;;;;26.94;59.73;64791.81;4966044;28;20230;-75
2022/06/22 09:20:34;;;;;;;13.07;9.93;;;;;;;26.76;60.57;64775.56;4981264;28;20258;-78
2022/06/22 09:23:16;;;;;;;14.25;9.15;;;;;;;26.73;61.02;64775.03;4991890;28;20223;-75
2022/06/22 09:25:47;;;;;;;12.75;9.90;;;;;;;26.68;61.20;64764.56;4969662;28;20231;-76
2022/06/22 09:28:27;;;;;;;10.45;8.48;;;;;;;26.86;61.24;64786.59;4990297;28;20196;-79
2022/06/22 09:31:09;;;;;;;14.73;9.50;;;;;;;27.00;60.48;64801.28;4977255;28;20278;-76
2022/06/22 09:33:51;;;;;;;13.20;9.60;;;;;;;26.85;61.07;64782.41;4960724;28;20251;-75
2022/06/22 09:36:47;;;;;;;13.60;9.50;;;;;;;27.20;59.36;64821.72;4990771;28;20291;-75
2022/06/22 09:39:33;;;;;;;8.32;7.53;;;;;;;26.99;56.85;64799.69;4971559;28;20196;-77
2022/06/22 09:42:15;;;;;;;9.93;8.90;;;;;;;27.18;55.98;64819.63;4961295;28;20192;-76
2022/06/22 09:45:04;;;;;;;11.45;8.82;;;;;;;27.45;56.27;64845.38;4973924;28;20242;-77
2022/06/22 09:48:05;;;;;;;11.63;8.98;;;;;;;27.97;55.54;64905.19;4963752;28;20208;-76
2022/06/22 09:51:13;;;;;;;11.00;9.45;;;;;;;28.55;53.73;64962.97;4964165;28;20238;-76
2022/06/22 09:57:15;;;;;;;9.82;8.75;;;;;;;28.05;54.44;64907.81;5003155;28;20235;-76
2022/06/22 10:00:06;;;;;;;9.65;8.75;;;;;;;28.38;53.10;64939.84;4980538;28;20415;-75
2022/06/22 10:03:07;;;;;;;13.02;9.93;;;;;;;28.24;54.21;64933.53;4972919;28;20204;-75
2022/06/22 10:05:57;;;;;;;10.75;9.65;;;;;;;28.17;55.42;64923.56;4980244;28;20216;-76
2022/06/22 10:08:39;;;;;;;10.15;9.13;;;;;;;28.07;57.14;64909.94;4965010;28;20250;-75
2022/06/22 10:11:20;;;;;;;13.85;9.10;;;;;;;28.20;55.13;64923.56;4967807;28;20224;-76
2022/06/22 10:14:30;;;;;;;12.00;8.40;;;;;;;28.62;54.79;64967.16;4963052;28;20274;-75
2022/06/22 10:17:10;;;;;;;9.52;8.57;;;;;;;28.78;52.14;64987.13;4988393;28;20249;-75
2022/06/22 10:19:52;;;;;;;10.65;8.60;;;;;;;28.42;53.25;64954.53;4966291;28;20220;-76
2022/06/22 10:22:33;;;;;;;14.50;8.90;;;;;;;27.84;55.41;64891.00;4961916;28;20246;-75
2022/06/22 10:25:32;;;;;;;9.15;7.82;;;;;;;27.86;56.26;64888.38;4968220;28;20223;-77
2022/06/22 10:28:16;;;;;;;13.95;9.73;;;;;;;28.31;56.12;64935.13;4954912;28;20250;-77
2022/06/22 10:30:51;;;;;;;10.38;8.93;;;;;;;28.82;52.86;64986.06;4965797;28;20239;-75
2022/06/22 10:34:09;;;;;;;14.70;7.95;;;;;;;28.51;52.04;64955.63;4972810;28;20235;-76
2022/06/22 10:37:04;;;;;;;11.02;7.47;;;;;;;28.55;53.36;64962.44;4990545;28;20200;-76
2022/06/22 10:39:51;;;;;;;19.10;9.07;;;;;;;27.63;55.99;64864.25;4962030;28;20224;-77
2022/06/22 10:45:39;;;;;;;9.82;7.63;;;;;;;26.93;57.98;64793.41;4949080;28;20447;-77
2022/06/22 10:48:38;;;;;;;11.18;8.60;;;;;;;27.09;59.46;64808.09;4964537;28;20204;-77
2022/06/22 10:51:18;;;;;;;14.95;8.95;;;;;;;26.86;59.91;64780.81;4969960;28;20230;-77
2022/06/22 10:54:12;;;;;;;14.60;8.50;;;;;;;27.27;59.05;64823.84;5034655;28;20188;-77
2022/06/22 10:56:59;;;;;;;11.80;8.05;;;;;;;26.98;59.83;64796.03;4997336;28;20513;-76
2022/06/22 10:59:41;;;;;;;11.07;8.48;;;;;;;27.30;61.18;64832.25;4989253;28;20231;-77
2022/06/22 11:02:48;;;;;;;12.73;9.50;;;;;;;27.23;60.20;64820.16;4977770;28;20218;-77
2022/06/22 11:05:42;;;;;;;9.30;8.40;;;;;;;27.79;57.89;64888.38;4960297;28;20291;-77
2022/06/22 11:08:31;;;;;;;13.13;8.65;;;;;;;27.83;58.09;64887.34;4964664;28;20279;-79
2022/06/22 11:11:19;;;;;;;11.90;9.30;;;;;;;27.74;59.75;64878.41;4980825;28;20219;-77
2022/06/22 11:14:14;;;;;;;11.13;8.88;;;;;;;27.41;60.48;64841.16;4974365;28;20508;-78
2022/06/22 11:17:03;;;;;;;17.30;9.38;;;;;;;27.74;59.58;64881.03;4967536;28;20212;-76
2022/06/22 11:20:04;;;;;;;11.95;8.75;;;;;;;28.20;59.12;64918.31;4969186;28;20228;-78
2022/06/22 11:22:35;;;;;;;9.00;8.15;;;;;;;27.93;59.22;64895.75;4972749;28;20271;-77
2022/06/22 11:31:56;;;;;;;12.55;9.60;;;;;;;28.20;59.28;64924.09;4984285;28;20238;-77
2022/06/22 11:34:54;;;;;;;10.98;9.02;;;;;;;27.57;61.14;64857.44;4965043;28;20272;-77
2022/06/22 11:37:34;;;;;;;12.52;8.40;;;;;;;27.81;60.06;64882.59;4969632;28;20206;-78
2022/06/22 11:40:30;;;;;;;11.95;8.48;;;;;;;27.92;60.16;64894.19;5022567;28;20255;-74
2022/06/22 11:43:09;;;;;;;15.43;9.18;;;;;;;27.76;61.50;64883.13;4962671;28;20204;-76
2022/06/22 11:45:54;;;;;;;12.23;7.65;;;;;;;27.71;60.95;64874.75;4972490;28;20219;-76
2022/06/22 11:48:47;;;;;;;15.27;8.93;;;;;;;27.48;61.08;64851.13;4967312;28;20275;-76
2022/06/22 11:51:26;;;;;;;13.98;9.07;;;;;;;27.75;60.67;64876.31;4968398;28;20266;-75
2022/06/22 11:54:25;;;;;;;10.07;8.25;;;;;;;27.71;58.87;64872.13;4963859;28;20200;-76
2022/06/22 11:57:07;;;;;;;10.90;7.32;;;;;;;27.69;60.21;64872.63;4964729;29;20222;-77
2022/06/22 12:00:03;;;;;;;9.23;8.23;;;;;;;27.95;60.57;64903.09;4964732;28;20274;-77
2022/06/22 12:03:00;;;;;;;14.48;7.47;;;;;;;27.79;57.05;64881.03;4962613;28;20208;-75
2022/06/22 12:05:45;;;;;;;9.43;7.68;;;;;;;28.52;53.18;64954.03;4948849;28;20228;-77
2022/06/22 12:08:38;;;;;;;9.75;7.82;;;;;;;28.44;52.85;64951.91;4970905;28;20215;-77
2022/06/22 12:11:15;;;;;;;8.15;7.10;;;;;;;28.92;49.80;65004.47;4973380;28;20220;-77
2022/06/22 12:17:04;;;;;;;8.90;7.32;;;;;;;28.96;50.52;65006.03;4968893;28;20207;-76
2022/06/22 12:19:41;;;;;;;12.43;8.73;;;;;;;28.72;50.83;64977.66;4970488;28;20230;-76
2022/06/22 12:22:17;;;;;;;10.57;7.90;;;;;;;28.72;50.70;64978.19;4967854;28;20204;-76
2022/06/22 12:25:00;;;;;;;10.88;8.32;;;;;;;28.90;51.37;64991.88;4967452;29;20281;-76
2022/06/22 12:27:31;;;;;;;8.70;7.82;;;;;;;29.12;51.77;65024.94;4963529;28;20212;-77
2022/06/22 12:30:12;;;;;;;12.40;7.60;;;;;;;28.52;50.82;64956.66;4969273;28;20224;-76